Sacramento, California
Current Conditions -  °F | °C
As of 4:53 PM on Wednesday 22 Oct 2014 (Local Time) from KSAC Reporting Station
Clear Clear  
Wind Chill: 76°   Ceiling: Unl
Heat Index: 76°   Visibility: 10mi
Dew Point: 41°   Wind: 0mph
Humidity: 29%   Direction: NA
Pressure: 29.99"   Gusts: NA
Location:  38.58°N, 121.49°W
Report Text: KSAC 222353Z AUTO 00000KT 10SM CLR 24/05 A2999 RMK AO2 SLP156 T02440050 10244 20178 56017 TSNO
Loading
Personal Weather Stations






























Interactive Weather Map New forecast layout! Learn more

10-Day Weather Forecast

Advertisements
Track Severe Weather on mobile